Terminal Aerodrome Forecast
Issued by NWS North Platte, NE

Home | Current Version | Previous Version | Text Only | Print | Product List | Glossary On
Versions: 1 2 3 4 5 6 7 8 9 10 11 12 13 14 15
000
FTUS43 KLBF 261136
TAFLBF
TAF
KLBF 261136Z 2612/2712 VRB04KT P6SM VCSH SCT120
      TEMPO 2612/2614 -SHRA BKN080
     FM261500 07010KT P6SM SCT080
     FM262200 07009KT P6SM VCTS OVC050CB PROB30 2700/2706 30025G35KT
      3SM TSRA OVC030CB
     FM270600 03010KT P6SM VCSH BKN035=

USA.gov is the U.S. government's official web portal to all federal, state and local government web resources and services.